Airfield :
LOGIN :

Register | Disclaimer

   EN    FR    IT 

 










Legend :    VFR   Marginal VFR   IFR   Intensive IFR   Very Intensive IFR
Visi :
Ceiling :
>= 8 km
>= 3000ft
5 to 8 km
1000 to 3000 ft
1500m to 5 km
500 to 1000 ft
800 to 1500m
200 to 500 ft
< 800m
< 200 ft
Symbols :   Thunderstorms  Fog  Heavy snow  Heavy precipitations  Wind > 20 kt
SIGMETs :     Misc.  Thunderstorms  Icing  Turbulence  Mountain Waves  Volcanic Ashes







- Airport Elevation : 90 ft
- IATA code : NTE
- Download approach charts


LFRS - Nantes

CURRENT METAR :
  • 170530Z AUTO 22009KT 200V260 9999 OVC005 19/18 Q1017 TEMPO 2000 DZRA

EXPIRED METARs :
  • 170500Z AUTO 22010KT 190V260 7000 -DZ OVC004 19/18 Q1018 TEMPO 3000 -DZRA BKN006 OVC012
  • 170430Z AUTO 22010KT 190V250 5000 DZ BR OVC005 19/18 Q1017 TEMPO NSW
  • 170400Z AUTO 22010KT 9000 -RA OVC010 19/17 Q1017 TEMPO 3000 -DZRA
  • 170330Z AUTO 22011KT 9999 OVC012 19/17 Q1017 TEMPO 3000 -DZRA BKN006 OVC012
  • 170300Z AUTO 22011KT 190V260 9999 OVC012 19/17 Q1017 TEMPO 3000 -DZRA BKN006 OVC012

TAF TAF LFRS
Valid from the 17 at 06:00 until the 18 at 12:00 UTC


170500Z 1706/1812 23010KT 9999 BKN010 OVC020
TEMPO 1706/1809 2000 DZRA BKN004 OVC010
PROB40
TEMPO 1709/1715 24015G25KT
BECMG 1809/1811 SCT025
ATIS : +33 2 40 05 12 74
No reported NOTAMs for that airfield.



MET'MAP, your aeronautical weather chart ! - Copyright ORBIFLY December 2007 - Disclaimer

ORBIFLY MET'MAP TEAM :

Programming & Development : Alexandra Zaïnal
Concept & Development : Baudouin d'Aumeries
Co-Development & Prog : Marc-Olivier Méhu
Technical & hardware support : Manuel Goepfert

Contact : metmap@orbifly.com




SOURCES & CREDITS :

   NOAA